Time;durP1;ratioP1;P1;durP2;ratioP2;P2;SDS_P1;SDS_P2;PMS_P1;PMS_P2;Temp;Humidity;BMP_temperature;BMP_pressure;BME280_temperature;BME280_humidity;BME280_pressure;Samples;Min_cycle;Max_cycle;Signal;HPM_P1;HPM_P2
2022/10/25 00:00:07;;;;;;;16.35;8.25;;;12.70;99.90;;;;;;5041888;28;20075;-87
2022/10/25 00:02:35;;;;;;;16.02;8.05;;;12.60;99.90;;;;;;5058080;28;20056;-87
2022/10/25 00:05:02;;;;;;;21.05;9.32;;;12.60;99.90;;;;;;5061176;28;20037;-87
2022/10/25 00:07:27;;;;;;;24.33;8.65;;;12.60;99.90;;;;;;5057816;28;20063;-87
2022/10/25 00:09:53;;;;;;;17.40;8.63;;;12.60;99.90;;;;;;5073982;28;20045;-87
2022/10/25 00:12:18;;;;;;;16.17;7.63;;;12.50;99.90;;;;;;5071925;28;20048;-86
2022/10/25 00:14:44;;;;;;;18.70;8.00;;;12.50;99.90;;;;;;5068880;28;20051;-88
2022/10/25 00:17:10;;;;;;;17.50;8.30;;;12.40;99.90;;;;;;5052446;28;20048;-88
2022/10/25 00:19:35;;;;;;;17.77;8.68;;;12.40;99.90;;;;;;5065451;28;20044;-86
2022/10/25 00:22:01;;;;;;;22.25;8.40;;;12.30;99.90;;;;;;5072982;28;20048;-87
2022/10/25 00:24:27;;;;;;;20.25;8.80;;;12.30;99.90;;;;;;5044820;28;20056;-86
2022/10/25 00:26:52;;;;;;;13.45;7.88;;;12.20;99.90;;;;;;5056942;28;20087;-87
2022/10/25 00:29:18;;;;;;;16.73;7.05;;;12.20;99.90;;;;;;5042081;28;20056;-86
2022/10/25 00:31:44;;;;;;;18.00;7.60;;;12.20;99.90;;;;;;5056021;28;20492;-86
2022/10/25 00:34:09;;;;;;;14.77;7.50;;;12.10;99.90;;;;;;5072735;28;20045;-86
2022/10/25 00:36:35;;;;;;;14.07;7.22;;;12.10;99.90;;;;;;5055751;28;20083;-87
2022/10/25 00:39:01;;;;;;;19.02;7.30;;;12.10;99.90;;;;;;5060465;28;20041;-87
2022/10/25 00:41:30;;;;;;;16.55;7.32;;;12.10;99.90;;;;;;5051720;28;20057;-87
2022/10/25 00:44:34;;;;;;;15.50;6.85;;;12.00;99.90;;;;;;5077863;28;20048;-87
2022/10/25 00:47:09;;;;;;;15.73;6.95;;;12.00;99.90;;;;;;5076916;28;20050;-87
2022/10/25 00:49:35;;;;;;;15.48;6.38;;;12.00;99.90;;;;;;5070572;28;20056;-87
2022/10/25 00:52:03;;;;;;;13.38;6.45;;;12.10;99.90;;;;;;5047094;28;20151;-87
2022/10/25 00:54:33;;;;;;;13.35;6.75;;;12.10;99.90;;;;;;5074346;28;20090;-87
2022/10/25 00:57:04;;;;;;;20.75;7.05;;;12.10;99.90;;;;;;5043730;28;20063;-88
2022/10/25 00:59:31;;;;;;;13.65;6.47;;;12.10;99.90;;;;;;5070641;28;20045;-87
2022/10/25 01:01:57;;;;;;;17.55;7.72;;;12.20;99.90;;;;;;5070398;28;20043;-87
2022/10/25 01:04:26;;;;;;;14.73;6.78;;;12.20;99.90;;;;;;5073301;28;20543;-87
2022/10/25 01:06:53;;;;;;;14.90;6.00;;;12.10;99.90;;;;;;5060078;28;20068;-87
2022/10/25 01:09:27;;;;;;;14.00;6.50;;;12.10;99.90;;;;;;5047484;28;20048;-87
2022/10/25 01:11:53;;;;;;;10.60;6.07;;;12.20;99.90;;;;;;5077175;28;20096;-87
2022/10/25 01:14:19;;;;;;;14.10;6.47;;;12.20;99.90;;;;;;5032202;28;20454;-87
2022/10/25 01:17:03;;;;;;;13.63;5.68;;;12.20;99.90;;;;;;5062961;28;20059;-87
2022/10/25 01:19:51;;;;;;;13.32;5.85;;;12.30;99.90;;;;;;5076585;28;20052;-87
2022/10/25 01:22:33;;;;;;;15.82;5.53;;;12.30;99.90;;;;;;5060414;28;20057;-87
2022/10/25 01:25:14;;;;;;;14.95;6.00;;;12.40;99.90;;;;;;5061897;28;20049;-87
2022/10/25 01:28:02;;;;;;;10.80;5.35;;;12.40;99.90;;;;;;5060432;28;20041;-87
2022/10/25 01:30:56;;;;;;;14.48;5.35;;;12.40;99.90;;;;;;5073989;28;20044;-87
2022/10/25 01:33:38;;;;;;;11.77;5.30;;;12.40;99.90;;;;;;5069585;28;20186;-87
2022/10/25 01:36:14;;;;;;;12.35;5.20;;;12.40;99.90;;;;;;5079000;28;20064;-87
2022/10/25 01:38:59;;;;;;;14.25;5.10;;;12.40;99.90;;;;;;5062246;28;20057;-87
2022/10/25 01:41:31;;;;;;;11.15;4.43;;;12.30;99.90;;;;;;5062420;28;20044;-87
2022/10/25 01:44:08;;;;;;;13.57;5.38;;;12.30;99.90;;;;;;5062248;28;20049;-87
2022/10/25 01:46:52;;;;;;;10.00;5.10;;;12.30;99.90;;;;;;5070644;28;20056;-86
2022/10/25 01:49:38;;;;;;;14.13;5.32;;;12.20;99.90;;;;;;5077859;28;20036;-88
2022/10/25 01:52:04;;;;;;;11.55;6.13;;;12.20;99.90;;;;;;5066189;28;20053;-87
2022/10/25 01:54:30;;;;;;;18.05;5.30;;;12.20;99.90;;;;;;5058974;28;20065;-86
2022/10/25 01:57:28;;;;;;;14.68;5.20;;;12.20;99.90;;;;;;5058906;28;20051;-87
2022/10/25 02:00:20;;;;;;;12.02;5.38;;;12.20;99.90;;;;;;5047281;28;20090;-87
2022/10/25 02:03:12;;;;;;;12.80;4.63;;;12.20;99.90;;;;;;5051385;28;20080;-87
2022/10/25 02:05:56;;;;;;;13.85;4.90;;;12.30;99.90;;;;;;5061260;28;20044;-89
2022/10/25 02:08:43;;;;;;;9.23;4.28;;;12.30;99.90;;;;;;5068882;28;20052;-86
2022/10/25 02:11:22;;;;;;;14.02;5.45;;;12.20;99.90;;;;;;5058984;28;20053;-87
2022/10/25 02:13:58;;;;;;;13.35;5.07;;;12.20;99.90;;;;;;5042818;28;20037;-87
2022/10/25 02:16:48;;;;;;;12.52;5.30;;;12.30;99.90;;;;;;5059349;28;20045;-87
2022/10/25 02:19:19;;;;;;;18.75;5.85;;;12.30;99.90;;;;;;5049472;28;20049;-87
2022/10/25 02:21:47;;;;;;;15.30;5.43;;;12.40;99.90;;;;;;5050246;28;20517;-88
2022/10/25 02:24:22;;;;;;;14.80;5.05;;;12.40;99.90;;;;;;5079287;28;20063;-87
2022/10/25 02:26:49;;;;;;;13.93;5.75;;;12.50;99.90;;;;;;5061198;28;20053;-87
2022/10/25 02:29:17;;;;;;;11.45;5.53;;;12.50;99.90;;;;;;5051927;28;20056;-86
2022/10/25 02:31:43;;;;;;;11.95;5.03;;;12.60;99.90;;;;;;5061204;28;20040;-88
2022/10/25 02:34:09;;;;;;;10.77;5.43;;;12.60;99.90;;;;;;5058900;28;20053;-87
2022/10/25 02:36:35;;;;;;;16.15;6.00;;;12.60;99.90;;;;;;5060756;28;20098;-87
2022/10/25 02:39:03;;;;;;;13.63;6.00;;;12.70;99.90;;;;;;5057232;28;20037;-87
2022/10/25 02:41:28;;;;;;;11.98;5.10;;;12.60;99.90;;;;;;5066659;28;20104;-87
2022/10/25 02:43:54;;;;;;;20.40;6.10;;;12.70;99.90;;;;;;5073184;28;20068;-87
2022/10/25 02:46:22;;;;;;;12.43;5.63;;;12.70;99.90;;;;;;5060190;28;20048;-87
2022/10/25 02:48:48;;;;;;;14.45;5.47;;;12.70;99.90;;;;;;5065519;28;20051;-87
2022/10/25 02:51:14;;;;;;;10.88;5.35;;;12.70;99.90;;;;;;5043349;28;20057;-87
2022/10/25 02:53:40;;;;;;;16.85;5.75;;;12.60;99.90;;;;;;5065964;28;20052;-87
2022/10/25 02:56:12;;;;;;;13.80;5.85;;;12.60;99.90;;;;;;5058936;28;20068;-87
2022/10/25 02:58:40;;;;;;;9.52;5.55;;;12.60;99.90;;;;;;5058312;28;20048;-88
2022/10/25 03:01:06;;;;;;;15.75;6.63;;;12.60;99.90;;;;;;5057912;28;20047;-88
2022/10/25 03:03:33;;;;;;;16.00;5.93;;;12.60;99.90;;;;;;5060749;28;20037;-87
2022/10/25 03:05:59;;;;;;;16.15;6.40;;;12.60;99.90;;;;;;5061968;28;20473;-87
2022/10/25 03:08:25;;;;;;;16.27;6.30;;;12.60;99.90;;;;;;5047882;28;20047;-87
2022/10/25 03:10:52;;;;;;;17.15;5.90;;;12.60;99.90;;;;;;5066694;28;20108;-87
2022/10/25 03:13:18;;;;;;;11.38;5.85;;;12.60;99.90;;;;;;5066907;28;20037;-87
2022/10/25 03:15:44;;;;;;;21.00;5.97;;;12.60;99.90;;;;;;5072548;28;20482;-87
2022/10/25 03:18:11;;;;;;;17.40;6.07;;;12.60;99.90;;;;;;5059540;28;20041;-89
2022/10/25 03:20:37;;;;;;;19.48;6.65;;;12.60;99.90;;;;;;5056695;28;20750;-88
2022/10/25 03:23:03;;;;;;;13.15;6.05;;;12.60;99.90;;;;;;5060693;28;20076;-86
2022/10/25 03:25:29;;;;;;;15.63;6.75;;;12.60;99.90;;;;;;5079284;28;20124;-86
2022/10/25 03:27:55;;;;;;;13.15;7.45;;;12.60;99.90;;;;;;5077563;28;20105;-86
2022/10/25 03:30:20;;;;;;;15.60;7.18;;;12.60;99.90;;;;;;5062493;28;20076;-86
2022/10/25 03:32:46;;;;;;;18.27;6.63;;;12.60;99.90;;;;;;5058044;28;20125;-85
2022/10/25 03:35:12;;;;;;;14.30;6.32;;;12.60;99.90;;;;;;5057797;28;20041;-86
2022/10/25 03:37:38;;;;;;;15.40;6.28;;;12.60;99.90;;;;;;5058330;28;20049;-86
2022/10/25 03:40:04;;;;;;;13.90;6.78;;;12.50;99.90;;;;;;5056959;28;20131;-86
2022/10/25 03:42:30;;;;;;;20.23;7.30;;;12.50;99.90;;;;;;5059004;28;20102;-86
2022/10/25 03:44:55;;;;;;;15.68;7.10;;;12.60;99.90;;;;;;5042110;28;20048;-86
2022/10/25 03:47:21;;;;;;;13.93;6.45;;;12.60;99.90;;;;;;5073583;28;20049;-86
2022/10/25 03:49:47;;;;;;;13.20;6.00;;;12.60;99.90;;;;;;5059860;28;20048;-86
2022/10/25 03:52:12;;;;;;;16.77;6.43;;;12.60;99.90;;;;;;5059464;28;20128;-86
2022/10/25 03:54:38;;;;;;;13.93;6.78;;;12.70;99.90;;;;;;5064791;28;20044;-86
2022/10/25 03:57:04;;;;;;;22.65;7.35;;;12.60;99.90;;;;;;5057782;28;20430;-86
2022/10/25 03:59:30;;;;;;;14.55;6.60;;;12.60;99.90;;;;;;5053096;28;20099;-86
2022/10/25 04:01:55;;;;;;;14.30;6.05;;;12.60;99.90;;;;;;5040311;28;20076;-86
2022/10/25 04:04:21;;;;;;;19.20;6.65;;;12.50;99.90;;;;;;5044048;28;20049;-86
2022/10/25 04:06:47;;;;;;;13.35;6.57;;;12.50;99.90;;;;;;5057532;28;20045;-86
2022/10/25 04:09:13;;;;;;;20.33;6.75;;;12.50;99.90;;;;;;5058891;28;20671;-87
2022/10/25 04:11:38;;;;;;;17.00;6.15;;;12.50;99.90;;;;;;5061765;28;20052;-86
2022/10/25 04:14:04;;;;;;;12.20;6.65;;;12.60;99.90;;;;;;5054369;28;20053;-86
2022/10/25 04:16:30;;;;;;;14.50;5.68;;;12.60;99.90;;;;;;5047624;28;20045;-86
2022/10/25 04:18:57;;;;;;;13.35;7.03;;;12.60;99.90;;;;;;5067917;28;20041;-86
2022/10/25 04:21:24;;;;;;;14.27;5.80;;;12.60;99.90;;;;;;5072055;28;20065;-89
2022/10/25 04:23:50;;;;;;;19.08;7.05;;;12.60;99.90;;;;;;5056310;28;20062;-89
2022/10/25 04:26:17;;;;;;;14.30;6.03;;;12.70;99.90;;;;;;5067004;28;20096;-89
2022/10/25 04:28:48;;;;;;;10.95;6.05;;;12.70;99.90;;;;;;5045904;28;20078;-89
2022/10/25 04:31:14;;;;;;;18.70;6.37;;;12.70;99.90;;;;;;5074095;28;20041;-91
2022/10/25 04:33:40;;;;;;;15.82;4.93;;;12.70;99.90;;;;;;5065528;28;20342;-88
2022/10/25 04:36:06;;;;;;;12.98;5.40;;;12.70;99.90;;;;;;5053431;28;20096;-90
2022/10/25 04:38:32;;;;;;;17.25;6.63;;;12.70;99.90;;;;;;5060656;28;20045;-90
2022/10/25 04:40:59;;;;;;;13.82;6.60;;;12.70;99.90;;;;;;5068058;28;20104;-88
2022/10/25 04:43:26;;;;;;;20.27;5.97;;;12.60;99.90;;;;;;5077537;28;20104;-87
2022/10/25 04:45:53;;;;;;;10.77;4.72;;;12.60;99.90;;;;;;5056521;28;20033;-88
2022/10/25 04:48:19;;;;;;;17.95;6.47;;;12.50;99.90;;;;;;5046271;28;20044;-89
2022/10/25 04:50:45;;;;;;;15.90;5.90;;;12.50;99.90;;;;;;5062221;28;20676;-88
2022/10/25 04:53:11;;;;;;;13.05;5.50;;;12.40;99.90;;;;;;5049164;28;20052;-89
2022/10/25 04:55:37;;;;;;;20.00;6.22;;;12.40;99.90;;;;;;5049340;28;20051;-88
2022/10/25 04:58:03;;;;;;;10.00;4.55;;;12.40;99.90;;;;;;5063672;28;20037;-88
2022/10/25 05:00:29;;;;;;;16.42;6.18;;;12.40;99.90;;;;;;5066268;28;20049;-90
2022/10/25 05:02:55;;;;;;;13.93;5.85;;;12.30;99.90;;;;;;5056525;28;20055;-91
2022/10/25 05:05:23;;;;;;;15.15;6.00;;;12.30;99.90;;;;;;5082141;28;20063;-91
2022/10/25 05:07:49;;;;;;;16.63;5.93;;;12.30;99.90;;;;;;5064360;28;20067;-90
2022/10/25 05:10:15;;;;;;;19.85;7.22;;;12.20;99.90;;;;;;5060106;28;20077;-89
2022/10/25 05:12:40;;;;;;;16.65;5.05;;;12.20;99.90;;;;;;5069158;28;20049;-90
2022/10/25 05:15:07;;;;;;;18.05;5.20;;;12.20;99.90;;;;;;5060218;28;20171;-91
2022/10/25 05:17:32;;;;;;;18.85;4.40;;;12.10;99.90;;;;;;5048904;28;20118;-91
2022/10/25 05:19:58;;;;;;;14.50;5.03;;;12.10;99.90;;;;;;5055564;28;20429;-91
2022/10/25 05:22:24;;;;;;;13.23;4.65;;;12.10;99.90;;;;;;5073528;28;20055;-90
2022/10/25 05:24:50;;;;;;;10.00;4.43;;;12.20;99.90;;;;;;5077225;28;20048;-90
2022/10/25 05:27:16;;;;;;;15.70;5.03;;;12.20;99.90;;;;;;5080359;28;20052;-90
2022/10/25 05:29:42;;;;;;;16.00;4.50;;;12.30;99.90;;;;;;5057356;28;20064;-88
2022/10/25 05:32:08;;;;;;;15.35;5.78;;;12.30;99.90;;;;;;5063542;28;20048;-89
2022/10/25 05:34:33;;;;;;;8.88;4.45;;;12.30;99.90;;;;;;5068469;28;20036;-89
2022/10/25 05:36:59;;;;;;;13.52;4.78;;;12.30;99.90;;;;;;5065347;28;20066;-89
2022/10/25 05:39:25;;;;;;;12.13;5.50;;;12.30;99.90;;;;;;5066685;28;20053;-89
2022/10/25 05:41:51;;;;;;;8.60;4.55;;;12.30;99.90;;;;;;5065923;28;20052;-87
2022/10/25 05:44:17;;;;;;;13.70;5.22;;;12.30;99.90;;;;;;5069034;28;20045;-87
2022/10/25 05:46:44;;;;;;;15.02;6.25;;;12.30;99.90;;;;;;5085723;28;20048;-87
2022/10/25 05:49:10;;;;;;;7.97;4.22;;;12.30;99.90;;;;;;5067163;28;20087;-87
2022/10/25 05:51:36;;;;;;;16.08;4.55;;;12.30;99.90;;;;;;5085057;28;20032;-87
2022/10/25 05:54:09;;;;;;;8.32;4.32;;;12.30;99.90;;;;;;5075373;28;20117;-86
2022/10/25 05:56:35;;;;;;;14.95;5.53;;;12.30;99.90;;;;;;5061348;28;20412;-88
2022/10/25 05:59:08;;;;;;;11.20;4.97;;;12.20;99.90;;;;;;5061866;28;20455;-87
2022/10/25 06:01:45;;;;;;;13.80;4.68;;;12.10;99.90;;;;;;5085032;28;20467;-87
2022/10/25 06:04:11;;;;;;;8.50;4.35;;;12.10;99.90;;;;;;5062916;28;20059;-87
2022/10/25 06:06:38;;;;;;;12.35;5.10;;;12.10;99.90;;;;;;5075305;28;20052;-87
2022/10/25 06:09:05;;;;;;;11.95;4.07;;;12.10;99.90;;;;;;5066188;28;20078;-87
2022/10/25 06:11:31;;;;;;;15.77;5.38;;;12.00;99.90;;;;;;5061238;28;20083;-87
2022/10/25 06:13:57;;;;;;;19.80;4.70;;;12.00;99.90;;;;;;5060631;28;20151;-87
2022/10/25 06:16:23;;;;;;;16.73;5.53;;;12.00;99.90;;;;;;5062778;28;20456;-87
2022/10/25 06:18:48;;;;;;;11.00;4.63;;;12.00;99.90;;;;;;5058113;28;20040;-88
2022/10/25 06:21:20;;;;;;;9.27;4.40;;;12.00;99.90;;;;;;5046821;28;20052;-88
2022/10/25 06:23:46;;;;;;;18.13;5.73;;;12.00;99.90;;;;;;5069913;28;20037;-87
2022/10/25 06:26:15;;;;;;;15.32;5.25;;;12.00;99.90;;;;;;5060710;28;20049;-88
2022/10/25 06:28:41;;;;;;;21.75;5.32;;;12.10;99.90;;;;;;5076343;28;20044;-87
2022/10/25 06:31:18;;;;;;;10.68;4.10;;;12.10;99.90;;;;;;5046909;28;20076;-88
2022/10/25 06:33:44;;;;;;;11.98;4.50;;;12.30;99.90;;;;;;5071539;28;20488;-85
2022/10/25 06:36:14;;;;;;;11.50;4.00;;;12.30;99.90;;;;;;5059619;28;20048;-85
2022/10/25 06:38:40;;;;;;;11.43;5.15;;;12.30;99.90;;;;;;5059957;28;20079;-85
2022/10/25 06:41:10;;;;;;;10.27;4.50;;;12.30;99.90;;;;;;5067980;28;20048;-85
2022/10/25 06:43:35;;;;;;;18.35;5.38;;;12.40;99.90;;;;;;5080329;28;20045;-85
2022/10/25 06:46:06;;;;;;;14.23;4.40;;;12.40;99.90;;;;;;5078314;28;20375;-86
2022/10/25 06:48:32;;;;;;;17.95;4.75;;;12.50;99.90;;;;;;5065512;28;20048;-84
2022/10/25 06:51:05;;;;;;;16.85;5.00;;;12.50;99.90;;;;;;5061774;28;20051;-84
2022/10/25 06:53:31;;;;;;;11.77;4.28;;;12.60;99.90;;;;;;5077670;28;20055;-84
2022/10/25 06:56:02;;;;;;;13.00;4.22;;;12.60;99.90;;;;;;5078827;28;20052;-84
2022/10/25 06:58:31;;;;;;;14.27;4.45;;;12.70;99.90;;;;;;5074046;28;20044;-84
2022/10/25 07:01:05;;;;;;;10.75;4.65;;;12.70;99.90;;;;;;5092889;28;20053;-84
2022/10/25 07:03:34;;;;;;;13.80;5.05;;;12.80;99.90;;;;;;5063635;28;20045;-84
2022/10/25 07:06:08;;;;;;;10.57;4.65;;;12.80;99.90;;;;;;5025651;28;20190;-84
2022/10/25 07:08:35;;;;;;;17.48;5.32;;;12.80;99.90;;;;;;5059199;28;20083;-84
2022/10/25 07:11:01;;;;;;;14.30;4.50;;;12.90;99.90;;;;;;5069558;28;20045;-84
2022/10/25 07:13:28;;;;;;;12.38;4.07;;;12.90;99.90;;;;;;5058421;28;20088;-83
2022/10/25 07:16:04;;;;;;;17.55;4.70;;;13.00;99.90;;;;;;5058447;28;20399;-84
2022/10/25 07:18:30;;;;;;;19.23;6.05;;;13.00;99.90;;;;;;5059167;28;20036;-84
2022/10/25 07:21:23;;;;;;;17.35;5.05;;;13.00;99.90;;;;;;5060129;28;20048;-85
2022/10/25 07:23:50;;;;;;;10.18;4.90;;;13.10;99.90;;;;;;5040852;28;20064;-86
2022/10/25 07:26:21;;;;;;;11.52;4.88;;;13.10;99.90;;;;;;5059789;28;20041;-86
2022/10/25 07:28:50;;;;;;;15.35;4.60;;;13.10;99.90;;;;;;5041830;28;20053;-85
2022/10/25 07:31:24;;;;;;;11.63;4.55;;;13.10;99.90;;;;;;5058594;28;20138;-85
2022/10/25 07:33:52;;;;;;;9.93;4.32;;;13.10;99.90;;;;;;5060638;28;20044;-86
2022/10/25 07:36:18;;;;;;;16.65;4.65;;;13.10;99.90;;;;;;5057385;28;20097;-86
2022/10/25 07:38:44;;;;;;;16.42;4.90;;;13.10;99.90;;;;;;5058583;28;20087;-86
2022/10/25 07:41:10;;;;;;;18.20;5.38;;;13.10;99.90;;;;;;5041387;28;20112;-86
2022/10/25 07:43:36;;;;;;;13.13;4.63;;;13.20;99.90;;;;;;5055471;28;20088;-85
2022/10/25 07:46:02;;;;;;;12.77;5.22;;;13.30;99.90;;;;;;5058361;28;20106;-86
2022/10/25 07:48:28;;;;;;;12.48;4.97;;;13.40;99.90;;;;;;5057589;28;20098;-85
2022/10/25 07:50:54;;;;;;;17.60;4.85;;;13.40;99.90;;;;;;5060332;28;20041;-86
2022/10/25 07:53:19;;;;;;;12.60;4.60;;;13.50;99.90;;;;;;5056403;28;20124;-85
2022/10/25 07:55:53;;;;;;;9.95;4.10;;;13.60;99.90;;;;;;5067118;28;20041;-85
2022/10/25 07:58:19;;;;;;;14.02;5.30;;;13.70;99.90;;;;;;5057561;28;20060;-83
2022/10/25 08:00:44;;;;;;;13.02;5.35;;;13.80;99.90;;;;;;5074332;28;20457;-84
2022/10/25 08:03:12;;;;;;;13.52;4.70;;;13.80;99.90;;;;;;5060032;28;20158;-84
2022/10/25 08:05:38;;;;;;;13.82;3.97;;;13.90;99.90;;;;;;5056488;28;20048;-83
2022/10/25 08:08:04;;;;;;;10.10;4.70;;;13.90;99.90;;;;;;5056607;28;20048;-83
2022/10/25 08:10:30;;;;;;;10.77;4.70;;;13.90;99.90;;;;;;5056186;28;20554;-83
2022/10/25 08:12:55;;;;;;;13.50;5.07;;;13.90;99.90;;;;;;5073421;28;20070;-83
2022/10/25 08:15:21;;;;;;;17.15;5.70;;;13.90;99.90;;;;;;5061747;28;20063;-83
2022/10/25 08:17:47;;;;;;;12.45;4.88;;;14.00;99.90;;;;;;5071256;28;20697;-83
2022/10/25 08:20:13;;;;;;;15.25;4.60;;;14.10;99.90;;;;;;5054862;28;20060;-83
2022/10/25 08:22:39;;;;;;;12.38;4.78;;;14.20;99.90;;;;;;5053928;28;20473;-83
2022/10/25 08:25:05;;;;;;;16.90;5.07;;;14.20;99.90;;;;;;5033704;28;20530;-83
2022/10/25 08:27:31;;;;;;;12.77;4.55;;;14.30;99.90;;;;;;5073948;28;20049;-83
2022/10/25 08:29:57;;;;;;;18.63;4.72;;;14.30;99.90;;;;;;5070903;28;20095;-83
2022/10/25 08:32:22;;;;;;;10.13;4.30;;;14.30;99.90;;;;;;5058747;28;20049;-83
2022/10/25 08:34:48;;;;;;;15.73;4.97;;;14.40;99.90;;;;;;5061957;28;20537;-83
2022/10/25 08:37:14;;;;;;;10.80;4.53;;;14.50;99.90;;;;;;5076247;28;20033;-85
2022/10/25 08:39:40;;;;;;;12.32;4.13;;;14.50;99.90;;;;;;5059675;28;20049;-84
2022/10/25 08:42:06;;;;;;;13.35;4.47;;;14.40;99.90;;;;;;5073256;28;20494;-84
2022/10/25 08:44:59;;;;;;;17.73;4.55;;;14.40;99.90;;;;;;5076682;28;20040;-84
2022/10/25 08:47:35;;;;;;;16.25;5.35;;;14.50;99.90;;;;;;5077201;28;20048;-84
2022/10/25 08:50:23;;;;;;;8.90;4.88;;;14.60;99.90;;;;;;5077406;28;20533;-83
2022/10/25 08:52:55;;;;;;;13.55;4.05;;;14.60;99.90;;;;;;5077560;28;20056;-84
2022/10/25 08:55:42;;;;;;;17.20;4.70;;;14.70;99.90;;;;;;5079714;28;20049;-84
2022/10/25 08:58:16;;;;;;;13.02;4.70;;;14.70;99.90;;;;;;5060380;28;20049;-84
2022/10/25 09:00:43;;;;;;;9.82;3.85;;;14.90;99.90;;;;;;5073765;28;20037;-84
2022/10/25 09:03:16;;;;;;;18.75;4.07;;;15.00;99.90;;;;;;5061025;28;20049;-83
2022/10/25 09:05:49;;;;;;;9.02;4.10;;;15.00;99.90;;;;;;5079682;28;20045;-84
2022/10/25 09:08:30;;;;;;;14.40;4.53;;;15.10;99.90;;;;;;5058552;28;20044;-84
2022/10/25 09:11:30;;;;;;;7.03;3.08;;;15.30;99.90;;;;;;5060277;28;20498;-84
2022/10/25 09:14:15;;;;;;;11.52;3.83;;;15.40;99.90;;;;;;5082357;28;20091;-84
2022/10/25 09:16:49;;;;;;;9.40;3.67;;;15.50;99.90;;;;;;5067556;28;20052;-84
2022/10/25 09:19:37;;;;;;;8.48;3.03;;;15.50;99.90;;;;;;5060394;28;20134;-84
2022/10/25 09:22:15;;;;;;;10.77;3.55;;;15.50;99.90;;;;;;5059633;28;20060;-84
2022/10/25 09:24:52;;;;;;;8.70;3.08;;;15.40;99.90;;;;;;5081192;28;20047;-83
2022/10/25 09:27:26;;;;;;;7.53;2.78;;;15.50;99.90;;;;;;5069809;28;20056;-84
2022/10/25 09:30:03;;;;;;;8.77;3.50;;;15.50;99.90;;;;;;5060576;28;20044;-83
2022/10/25 09:32:33;;;;;;;4.68;2.90;;;15.60;99.90;;;;;;5059776;28;20052;-84
2022/10/25 09:35:01;;;;;;;8.98;2.63;;;15.80;99.90;;;;;;5062173;28;20063;-83
2022/10/25 09:37:39;;;;;;;7.72;3.30;;;15.90;99.90;;;;;;5089032;28;20056;-84
2022/10/25 09:40:28;;;;;;;9.52;3.00;;;15.80;99.90;;;;;;5062548;28;20734;-84
2022/10/25 09:43:07;;;;;;;9.75;3.40;;;15.80;99.90;;;;;;5075018;28;20060;-84
2022/10/25 09:45:56;;;;;;;8.90;3.28;;;16.10;99.90;;;;;;5065900;28;20203;-84
2022/10/25 09:48:51;;;;;;;10.55;4.40;;;16.30;99.90;;;;;;5067974;28;20033;-83
2022/10/25 09:51:45;;;;;;;8.05;2.60;;;16.40;99.90;;;;;;5042503;28;20078;-84
2022/10/25 09:54:27;;;;;;;8.40;2.75;;;16.30;99.90;;;;;;5061309;28;20041;-84
2022/10/25 09:56:53;;;;;;;11.48;2.42;;;16.10;99.90;;;;;;5066852;28;20052;-83
2022/10/25 09:59:18;;;;;;;3.60;2.45;;;16.00;99.90;;;;;;5046170;28;20048;-83
2022/10/25 10:01:44;;;;;;;4.85;2.40;;;15.80;99.90;;;;;;5059166;28;20416;-83
2022/10/25 10:04:31;;;;;;;5.60;2.78;;;15.70;99.90;;;;;;5049764;28;20060;-83
2022/10/25 10:07:04;;;;;;;5.22;2.47;;;15.50;99.90;;;;;;5072987;28;20084;-83
2022/10/25 10:09:31;;;;;;;5.07;2.55;;;15.50;99.90;;;;;;5064575;28;20076;-83
2022/10/25 10:11:58;;;;;;;5.13;2.63;;;15.50;99.90;;;;;;5051021;28;20045;-83
2022/10/25 10:14:37;;;;;;;3.58;2.22;;;15.50;99.90;;;;;;5059915;28;20075;-84
2022/10/25 10:17:05;;;;;;;9.20;2.63;;;15.50;99.90;;;;;;5058070;28;20052;-84
2022/10/25 10:19:31;;;;;;;14.82;2.42;;;15.50;99.90;;;;;;5062821;28;20044;-84
2022/10/25 10:22:15;;;;;;;2.58;1.88;;;15.50;99.90;;;;;;5078907;28;20498;-85
2022/10/25 10:24:43;;;;;;;6.38;2.50;;;15.50;99.90;;;;;;5080190;28;20929;-84
2022/10/25 10:27:12;;;;;;;7.82;2.30;;;15.60;99.90;;;;;;5065291;28;20528;-86
2022/10/25 10:29:51;;;;;;;5.93;2.67;;;15.60;99.90;;;;;;5074945;28;20173;-86
2022/10/25 10:32:28;;;;;;;8.90;2.78;;;15.60;99.90;;;;;;5065269;28;20376;-87
2022/10/25 10:34:56;;;;;;;8.32;2.75;;;15.70;99.90;;;;;;5069413;28;20053;-85
2022/10/25 10:37:24;;;;;;;7.00;2.85;;;15.60;99.90;;;;;;5065520;28;20079;-87
2022/10/25 10:39:54;;;;;;;8.93;2.20;;;15.80;99.90;;;;;;5056619;28;20040;-85
2022/10/25 10:42:21;;;;;;;6.40;2.58;;;15.80;99.90;;;;;;5061377;28;20490;-85
2022/10/25 10:45:06;;;;;;;6.07;2.70;;;15.80;99.90;;;;;;5071667;28;20048;-84
2022/10/25 10:47:47;;;;;;;9.98;2.92;;;16.00;99.90;;;;;;5061337;28;20044;-85
2022/10/25 10:50:22;;;;;;;7.40;2.38;;;16.10;99.90;;;;;;5060639;28;20124;-83
2022/10/25 10:53:21;;;;;;;6.75;2.05;;;16.20;99.90;;;;;;5059449;28;20047;-84
2022/10/25 10:55:49;;;;;;;7.85;2.45;;;16.30;99.90;;;;;;5059346;28;20087;-86
2022/10/25 10:58:36;;;;;;;4.65;2.20;;;16.30;99.90;;;;;;5045004;28;20052;-85
2022/10/25 11:01:05;;;;;;;5.43;2.20;;;16.30;99.90;;;;;;5060934;28;20124;-86
2022/10/25 11:03:40;;;;;;;8.82;2.63;;;16.40;99.90;;;;;;5042782;28;20082;-85
2022/10/25 11:06:14;;;;;;;7.78;2.60;;;16.40;99.90;;;;;;5057446;28;20053;-85
2022/10/25 11:08:41;;;;;;;6.60;2.15;;;16.50;99.90;;;;;;5059002;28;20037;-86
2022/10/25 11:11:21;;;;;;;6.25;1.80;;;16.70;99.90;;;;;;5053966;28;20111;-86
2022/10/25 11:13:58;;;;;;;4.68;1.90;;;16.70;99.90;;;;;;5079534;28;20044;-86
2022/10/25 11:16:34;;;;;;;6.13;2.38;;;16.70;99.90;;;;;;5062351;28;20054;-85
2022/10/25 11:19:24;;;;;;;9.27;2.45;;;16.60;99.90;;;;;;5074314;28;20056;-85
2022/10/25 11:22:14;;;;;;;4.75;1.50;;;16.40;99.90;;;;;;5062910;28;20057;-86
2022/10/25 11:25:05;;;;;;;7.38;2.05;;;16.40;99.90;;;;;;5045434;28;20786;-86
2022/10/25 11:27:58;;;;;;;8.65;2.20;;;16.50;99.90;;;;;;5076133;28;20044;-86
2022/10/25 11:30:30;;;;;;;11.95;2.08;;;16.60;99.90;;;;;;5059256;28;20056;-86
2022/10/25 11:33:08;;;;;;;4.72;2.10;;;16.80;99.90;;;;;;5091924;28;20155;-86
2022/10/25 11:35:42;;;;;;;9.18;2.58;;;16.80;99.90;;;;;;5057664;28;20053;-87
2022/10/25 11:38:29;;;;;;;4.97;1.75;;;16.80;99.90;;;;;;5074841;28;20048;-86
2022/10/25 11:41:14;;;;;;;4.38;2.03;;;16.90;99.90;;;;;;5075813;28;20470;-86
2022/10/25 11:44:10;;;;;;;7.35;1.90;;;16.90;99.90;;;;;;5077786;28;20064;-86
2022/10/25 11:47:11;;;;;;;4.00;1.25;;;16.80;99.90;;;;;;5078723;28;20204;-86
2022/10/25 11:50:00;;;;;;;5.38;2.03;;;16.60;99.90;;;;;;5056832;28;20054;-86
2022/10/25 11:52:46;;;;;;;6.88;1.88;;;16.60;99.90;;;;;;5077523;28;20100;-86
2022/10/25 11:55:14;;;;;;;5.38;2.03;;;16.50;99.90;;;;;;5078947;28;20049;-86
2022/10/25 11:58:00;;;;;;;5.78;1.42;;;16.50;99.90;;;;;;5080293;28;20048;-87
2022/10/25 12:00:45;;;;;;;7.97;2.45;;;16.50;99.90;;;;;;5077889;28;20161;-87
2022/10/25 12:03:35;;;;;;;4.72;1.20;;;16.50;99.90;;;;;;5067635;28;20053;-86
2022/10/25 12:06:42;;;;;;;4.97;1.65;;;16.60;99.90;;;;;;5056897;28;20041;-86
2022/10/25 12:09:20;;;;;;;4.38;1.52;;;16.70;99.90;;;;;;5020129;28;20084;-86
2022/10/25 12:11:51;;;;;;;6.18;1.30;;;16.90;99.90;;;;;;5031160;28;20048;-86
2022/10/25 12:14:26;;;;;;;6.45;1.83;;;17.00;99.90;;;;;;5056922;28;20064;-86
2022/10/25 12:16:54;;;;;;;4.40;1.55;;;17.00;99.90;;;;;;5041470;28;20052;-86
2022/10/25 12:19:25;;;;;;;3.97;1.27;;;17.10;99.90;;;;;;5024400;28;20052;-86
2022/10/25 12:21:58;;;;;;;2.22;1.20;;;17.10;99.90;;;;;;5064756;28;20098;-86
2022/10/25 12:24:34;;;;;;;10.10;2.03;;;17.00;99.90;;;;;;5078139;28;20071;-86
2022/10/25 12:27:00;;;;;;;4.47;1.92;;;17.00;99.90;;;;;;5078262;28;20060;-86
2022/10/25 12:29:35;;;;;;;2.47;1.00;;;17.00;99.90;;;;;;5078984;28;20045;-86
2022/10/25 12:32:07;;;;;;;7.32;1.65;;;16.90;99.90;;;;;;5080916;28;20137;-86
2022/10/25 12:34:43;;;;;;;4.47;1.50;;;16.90;99.90;;;;;;5071023;28;20128;-86
2022/10/25 12:37:24;;;;;;;3.92;1.48;;;16.80;99.90;;;;;;5057299;28;20487;-85
2022/10/25 12:39:51;;;;;;;11.93;1.95;;;16.80;99.90;;;;;;5060197;28;20080;-86
2022/10/25 12:42:22;;;;;;;4.55;1.27;;;16.90;99.90;;;;;;5062376;28;20049;-86
2022/10/25 12:44:47;;;;;;;2.45;1.52;;;16.90;99.90;;;;;;5044015;28;20041;-84
2022/10/25 12:47:25;;;;;;;3.65;1.48;;;16.90;99.90;;;;;;5067047;28;20095;-86
2022/10/25 12:49:56;;;;;;;4.75;1.40;;;16.90;99.90;;;;;;5064461;28;20072;-86
2022/10/25 12:52:37;;;;;;;6.00;2.08;;;16.80;99.90;;;;;;5070117;28;20385;-86
2022/10/25 12:55:40;;;;;;;7.83;2.53;;;16.90;99.90;;;;;;5062100;28;20052;-85
2022/10/25 12:58:25;;;;;;;1.83;1.40;;;16.90;99.90;;;;;;5060949;28;20371;-87
2022/10/25 13:01:07;;;;;;;3.47;1.40;;;16.80;99.90;;;;;;5060800;28;20057;-86
2022/10/25 13:04:01;;;;;;;2.10;1.27;;;16.80;99.90;;;;;;5076903;28;20127;-87